Airport View

Enter AWOS ICAO identifier for current METAR.

ex. KFNL

KFOD 250456Z AUTO VRB04KT 10SM CLR 05/01 A2987 RMK AO2 SLP146 T00500006

25 Nov 2017 05:46

Frequency: 118.775

Phone: 515-955-5490

Other Area AWOS: KEBS - KCAV - KAXA - KBNW

TAF AMD KFOD 242336Z 2500/2524 32010G19KT P6SM SCT150 FM250400 32008KT P6SM SKC